METAR AND TAF INFORMATION
METAR FOR EFKE
ADDS - METARS form results

(0132 UTC 01 June 2020)
Data provider http://aviationweather.gov/metar/data/
 
METAR text: EFKE 010120Z AUTO 01003KT CAVOK 06/04 Q1027
Conditions at: EFKE (KEMI , FI) observed 0120 UTC 01 June 2020
Temperature: 6.0°C (43°F)
Dewpoint: 4.0°C (39°F) [RH = 87%]
Pressure (altimeter): 30.32 inches Hg (1027.0 mb)
Winds: from the N (10 degrees) at 3 MPH (3 knots; 1.5 m/s)
Visibility: 6 or more miles (10+ km)
Ceiling: ceiling and visibility are OK
Clouds: unknown
Weather: no significant weather observed at this time

METAR text: EFKE 010050Z AUTO VRB01KT CAVOK 05/04 Q1027
Conditions at: EFKE (KEMI , FI) observed 0050 UTC 01 June 2020
Temperature: 5.0°C (41°F)
Dewpoint: 4.0°C (39°F) [RH = 93%]
Pressure (altimeter): 30.32 inches Hg (1027.0 mb)
Winds: variable direction winds at 1 MPH (1 knots; 0.5 m/s)
Visibility: 6 or more miles (10+ km)
Ceiling: ceiling and visibility are OK
Clouds: unknown
Weather: no significant weather observed at this time

 AIRPORT MAP

 RUNWAY INFORMATION
Runway 18 Runway length 8212 ft Runway width 157 ft
Runway elevation 48 ft Runway displaced threshold 0 ft Runway heading 188
Runway 36 Runway length 8212 ft Runway width 157 ft
Runway elevation 31 ft Runway displaced threshold 0 ft Runway heading 8

 AIRPORT FREQUENCIES
Type ATIS Name ATIS Frequency 123.15 MHZ
Type TWR Name TWR Frequency 119.4 MHZ

 AIRPORT NEAR NAVIGATION AIDS
Type NDB Name Kemi Frequency 373 KHZ



Powered by Virtual Airlines Manager [v2.6.2]